createdAt,value
2018-09-08T00:00:13.497Z,69.72
2018-09-08T00:02:44.226Z,69.87
2018-09-08T00:05:14.755Z,69.82
2018-09-08T00:07:45.241Z,69.67
2018-09-08T00:10:15.752Z,70.34
2018-09-08T00:12:46.264Z,69.72
2018-09-08T00:15:22.721Z,70.70
2018-09-08T00:17:58.507Z,70.50
2018-09-08T00:20:34.100Z,70.56
2018-09-08T00:23:10.272Z,70.94
2018-09-08T00:25:46.132Z,70.75
2018-09-08T00:28:24.680Z,70.73
2018-09-08T00:30:55.229Z,71.09
2018-09-08T00:33:25.752Z,71.36
2018-09-08T00:35:56.679Z,71.21
2018-09-08T00:38:27.302Z,71.18
2018-09-08T00:40:57.972Z,71.37
2018-09-08T00:43:28.310Z,70.86
2018-09-08T00:45:58.922Z,70.41
2018-09-08T00:48:29.550Z,71.08
2018-09-08T00:51:00.467Z,70.57
2018-09-08T00:53:31.739Z,71.13
2018-09-08T00:56:02.134Z,70.71
2018-09-08T00:58:32.396Z,70.45
2018-09-08T01:01:02.932Z,70.56
2018-09-08T01:03:35.070Z,70.80
2018-09-08T01:06:06.440Z,70.48
2018-09-08T01:08:36.723Z,70.47
2018-09-08T01:11:07.297Z,70.56
2018-09-08T01:13:38.007Z,70.02
2018-09-08T01:16:08.528Z,69.93
2018-09-08T01:18:39.090Z,69.97
2018-09-08T01:21:10.215Z,69.23
2018-09-08T01:23:41.118Z,69.39
2018-09-08T01:26:11.658Z,68.93
2018-09-08T01:28:42.513Z,69.02
2018-09-08T01:31:13.549Z,68.84
2018-09-08T01:33:43.836Z,68.41
2018-09-08T01:36:14.346Z,68.68
2018-09-08T01:38:45.496Z,68.34
2018-09-08T01:41:16.028Z,68.67
2018-09-08T01:43:46.505Z,68.37
2018-09-08T01:46:17.084Z,68.80
2018-09-08T01:48:47.740Z,68.31
2018-09-08T01:51:18.458Z,67.97
2018-09-08T01:53:48.980Z,66.36
2018-09-08T01:56:19.488Z,66.63
2018-09-08T01:58:49.996Z,67.16
2018-09-08T02:01:20.524Z,67.30
2018-09-08T02:03:51.106Z,67.55
2018-09-08T02:06:21.681Z,67.90
2018-09-08T02:08:52.191Z,67.99
2018-09-08T02:11:22.427Z,68.40
2018-09-08T02:13:52.695Z,68.27
2018-09-08T02:16:23.431Z,68.41
2018-09-08T02:18:54.357Z,68.82
2018-09-08T02:21:25.148Z,69.29
2018-09-08T02:23:55.792Z,69.62
2018-09-08T02:26:26.382Z,69.74
2018-09-08T02:28:56.872Z,69.71
2018-09-08T02:31:27.237Z,69.83
2018-09-08T02:33:57.789Z,69.64
2018-09-08T02:36:28.314Z,69.65
2018-09-08T02:38:58.837Z,69.91
2018-09-08T02:41:29.335Z,69.07
2018-09-08T02:43:59.824Z,69.14
2018-09-08T02:46:30.066Z,68.89
2018-09-08T02:49:00.313Z,69.18
2018-09-08T02:51:29.988Z,68.52
2018-09-08T02:53:59.476Z,68.70
2018-09-08T02:56:28.700Z,68.48
2018-09-08T02:58:58.071Z,67.95
2018-09-08T03:01:27.469Z,68.13
2018-09-08T03:03:56.808Z,68.27
2018-09-08T03:06:26.168Z,68.50
2018-09-08T03:08:55.517Z,69.10
2018-09-08T03:11:25.433Z,69.39
2018-09-08T03:13:55.184Z,69.85
2018-09-08T03:16:24.525Z,69.42
2018-09-08T03:18:54.018Z,69.74
2018-09-08T03:21:23.855Z,69.27
2018-09-08T03:23:52.912Z,69.53
2018-09-08T03:26:22.912Z,69.24
2018-09-08T03:28:52.262Z,68.63
2018-09-08T03:31:21.666Z,68.49
2018-09-08T03:33:51.007Z,68.03
2018-09-08T03:36:20.352Z,67.97
2018-09-08T03:38:49.704Z,68.47
2018-09-08T03:41:19.208Z,67.71
2018-09-08T03:43:48.543Z,67.34
2018-09-08T03:46:17.988Z,68.25
2018-09-08T03:48:47.520Z,68.61
2018-09-08T03:51:16.843Z,68.80
2018-09-08T03:53:46.639Z,68.82
2018-09-08T03:56:16.004Z,68.51
2018-09-08T03:58:45.352Z,69.23
2018-09-08T04:01:14.717Z,68.71
2018-09-08T04:03:45.214Z,69.46
2018-09-08T04:06:15.454Z,69.30
2018-09-08T04:08:46.081Z,69.33
2018-09-08T04:11:16.806Z,68.86
2018-09-08T04:13:47.484Z,69.13
2018-09-08T04:16:17.864Z,69.12
2018-09-08T04:18:48.516Z,68.75
2018-09-08T04:21:18.917Z,68.69
2018-09-08T04:23:49.444Z,68.39
2018-09-08T04:26:19.813Z,68.23
2018-09-08T04:28:50.395Z,68.14
2018-09-08T04:31:20.800Z,67.96
2018-09-08T04:33:51.307Z,68.37
2018-09-08T04:36:21.532Z,67.87
2018-09-08T04:38:52.145Z,68.58
2018-09-08T04:41:22.707Z,67.97
2018-09-08T04:43:53.684Z,68.25
2018-09-08T04:46:24.180Z,67.73
2018-09-08T04:48:54.777Z,67.60
2018-09-08T04:51:26.630Z,67.69
2018-09-08T04:53:57.313Z,67.35
2018-09-08T04:56:29.977Z,67.35
2018-09-08T04:59:01.075Z,67.26
2018-09-08T05:01:31.714Z,66.72
2018-09-08T05:04:02.267Z,65.83
2018-09-08T05:06:32.818Z,65.50
2018-09-08T05:09:04.092Z,65.46
2018-09-08T05:11:34.816Z,65.70
2018-09-08T05:14:05.604Z,65.40
2018-09-08T05:16:35.880Z,64.52
2018-09-08T05:19:06.427Z,64.73
2018-09-08T05:21:37.487Z,64.69
2018-09-08T05:24:08.101Z,64.58
2018-09-08T05:26:38.677Z,64.71
2018-09-08T05:29:10.236Z,65.24
2018-09-08T05:31:41.053Z,64.95
2018-09-08T05:34:11.645Z,65.37
2018-09-08T05:36:46.971Z,64.89
2018-09-08T05:39:17.405Z,65.60
2018-09-08T05:41:47.936Z,65.59
2018-09-08T05:44:18.449Z,65.29
2018-09-08T05:46:49.192Z,65.81
2018-09-08T05:49:20.036Z,66.45
2018-09-08T05:51:51.203Z,65.80
2018-09-08T05:54:21.761Z,65.38
2018-09-08T05:56:52.125Z,65.94
2018-09-08T05:59:22.733Z,64.69
2018-09-08T06:01:53.793Z,65.26
2018-09-08T06:04:25.093Z,64.34
2018-09-08T06:07:04.395Z,64.51
2018-09-08T06:09:35.934Z,64.35
2018-09-08T06:12:06.905Z,64.05
2018-09-08T06:14:37.124Z,63.35
2018-09-08T06:17:07.720Z,63.34
2018-09-08T06:19:38.148Z,62.81
2018-09-08T06:22:09.071Z,62.83
2018-09-08T06:24:39.299Z,62.39
2018-09-08T06:27:09.692Z,61.38
2018-09-08T06:29:40.216Z,62.00
2018-09-08T06:32:10.686Z,61.61
2018-09-08T06:34:41.181Z,60.63
2018-09-08T06:37:14.054Z,60.87
2018-09-08T06:39:44.583Z,60.54
2018-09-08T06:42:14.939Z,60.45
2018-09-08T06:44:45.265Z,60.06
2018-09-08T06:47:15.660Z,59.84
2018-09-08T06:49:45.942Z,59.38
2018-09-08T06:52:16.593Z,59.33
2018-09-08T06:54:47.447Z,59.11
2018-09-08T06:57:18.168Z,58.73
2018-09-08T06:59:48.682Z,57.84
2018-09-08T07:02:18.900Z,56.81
2018-09-08T07:04:49.398Z,57.53
2018-09-08T07:07:19.865Z,57.80
2018-09-08T07:09:51.202Z,56.91
2018-09-08T07:12:21.766Z,56.73
2018-09-08T07:14:52.504Z,57.69
2018-09-08T07:17:28.845Z,57.44
2018-09-08T07:20:00.597Z,57.72
2018-09-08T07:22:35.189Z,57.17
2018-09-08T07:25:08.529Z,58.04
2018-09-08T07:27:38.756Z,58.10
2018-09-08T07:30:09.044Z,58.46
2018-09-08T07:32:39.697Z,58.52
2018-09-08T07:35:10.665Z,58.62
2018-09-08T07:37:43.152Z,59.57
2018-09-08T07:40:13.457Z,59.08
2018-09-08T07:42:44.369Z,60.42
2018-09-08T07:45:16.650Z,59.08
2018-09-08T07:47:49.308Z,59.71
2018-09-08T07:50:19.852Z,59.98
2018-09-08T07:52:50.403Z,58.42
2018-09-08T07:55:20.680Z,59.58
2018-09-08T07:57:51.203Z,60.63
2018-09-08T08:00:21.724Z,60.63
2018-09-08T08:02:52.237Z,61.56
2018-09-08T08:05:22.568Z,61.05
2018-09-08T08:07:53.444Z,60.82
2018-09-08T08:10:24.465Z,61.26
2018-09-08T08:12:55.122Z,60.04
2018-09-08T08:15:25.374Z,59.21
2018-09-08T08:17:55.958Z,60.05
2018-09-08T08:20:26.598Z,59.92
2018-09-08T08:22:57.680Z,57.96
2018-09-08T08:25:28.290Z,56.82
2018-09-08T08:27:59.284Z,57.10
2018-09-08T08:30:30.062Z,54.40
2018-09-08T08:33:00.482Z,53.64
2018-09-08T08:35:31.101Z,54.64
2018-09-08T08:38:02.199Z,55.79
2018-09-08T08:40:32.726Z,55.91
2018-09-08T08:43:04.034Z,54.43
2018-09-08T08:45:34.562Z,55.13
2018-09-08T08:48:05.645Z,55.62
2018-09-08T08:50:47.520Z,55.17
2018-09-08T08:53:31.961Z,56.74
2018-09-08T08:56:02.468Z,56.93
2018-09-08T08:58:34.564Z,56.78
2018-09-08T09:01:07.571Z,56.24
2018-09-08T09:03:38.545Z,56.74
2018-09-08T09:06:11.604Z,54.21
2018-09-08T09:08:42.534Z,52.75
2018-09-08T09:11:13.570Z,52.40
2018-09-08T09:13:44.355Z,51.22
2018-09-08T09:16:17.220Z,52.25
2018-09-08T09:18:59.364Z,52.05
2018-09-08T09:21:41.277Z,52.36
2018-09-08T09:24:24.560Z,51.49
2018-09-08T09:26:54.933Z,51.28
2018-09-08T09:29:25.616Z,50.54
2018-09-08T09:31:56.865Z,49.22
2018-09-08T09:34:27.512Z,44.45
2018-09-08T09:36:58.307Z,38.67
2018-09-08T09:39:28.861Z,35.06
2018-09-08T09:41:59.075Z,32.00
2018-09-08T09:44:30.527Z,33.58
2018-09-08T09:47:01.056Z,34.53
2018-09-08T09:49:31.742Z,33.98
2018-09-08T09:52:02.314Z,34.82
2018-09-08T09:54:32.835Z,32.80
2018-09-08T09:57:03.943Z,32.36
2018-09-08T09:59:34.497Z,33.25
2018-09-08T10:02:10.454Z,30.92
2018-09-08T10:04:40.709Z,30.92
2018-09-08T10:07:11.758Z,32.14
2018-09-08T10:09:41.992Z,31.84
2018-09-08T10:12:12.843Z,36.55
2018-09-08T10:14:43.360Z,33.73
2018-09-08T10:17:14.150Z,30.55
2018-09-08T10:19:44.856Z,29.93
2018-09-08T10:22:15.405Z,28.89
2018-09-08T10:24:45.942Z,26.83
2018-09-08T10:27:20.791Z,28.02
2018-09-08T10:29:52.182Z,26.13
2018-09-08T10:32:23.738Z,32.91
2018-09-08T10:34:54.678Z,37.30
2018-09-08T10:37:25.782Z,40.21
2018-09-08T10:39:56.285Z,39.33
2018-09-08T10:42:26.929Z,31.37
2018-09-08T10:44:57.687Z,34.24
2018-09-08T10:47:28.184Z,37.99
2018-09-08T10:49:58.810Z,35.60
2018-09-08T10:52:33.899Z,39.48
2018-09-08T10:55:04.616Z,41.77
2018-09-08T10:57:35.277Z,43.19
2018-09-08T11:00:07.132Z,43.82
2018-09-08T11:02:39.241Z,43.97
2018-09-08T11:05:13.047Z,43.51
2018-09-08T11:07:45.459Z,44.18
2018-09-08T11:10:15.952Z,42.71
2018-09-08T11:12:48.672Z,41.24
2018-09-08T11:15:20.920Z,42.07
2018-09-08T11:17:52.717Z,41.89
2018-09-08T11:20:23.011Z,42.02
2018-09-08T11:22:53.511Z,43.60
2018-09-08T11:25:27.054Z,42.87
2018-09-08T11:27:58.046Z,42.26
2018-09-08T11:30:29.010Z,41.89
2018-09-08T11:32:59.695Z,42.19
2018-09-08T11:35:30.465Z,41.98
2018-09-08T11:38:01.041Z,42.41
2018-09-08T11:40:31.432Z,42.79
2018-09-08T11:43:02.456Z,41.61
2018-09-08T11:45:32.781Z,41.87
2018-09-08T11:48:03.555Z,40.34
2018-09-08T11:50:34.092Z,41.43
2018-09-08T11:53:04.749Z,40.75
2018-09-08T11:55:35.451Z,40.26
2018-09-08T11:58:06.564Z,39.19
2018-09-08T12:00:37.196Z,40.26
2018-09-08T12:03:10.642Z,41.33
2018-09-08T12:05:41.067Z,42.08
2018-09-08T12:08:11.722Z,42.55
2018-09-08T12:10:42.530Z,43.07
2018-09-08T12:13:13.307Z,43.22
2018-09-08T12:15:43.860Z,42.83
2018-09-08T12:18:14.135Z,42.82
2018-09-08T12:20:45.327Z,42.40
2018-09-08T12:23:16.332Z,42.59
2018-09-08T12:25:47.489Z,42.71
2018-09-08T12:28:17.787Z,42.54
2018-09-08T12:30:48.491Z,41.88
2018-09-08T12:33:18.930Z,40.89
2018-09-08T12:35:50.016Z,40.04
2018-09-08T12:38:20.584Z,40.18
2018-09-08T12:40:51.115Z,40.13
2018-09-08T12:43:21.464Z,39.47
2018-09-08T12:45:51.782Z,41.15
2018-09-08T12:48:22.844Z,40.62
2018-09-08T12:50:53.564Z,41.11
2018-09-08T12:53:24.110Z,40.35
2018-09-08T12:55:54.920Z,41.99
2018-09-08T12:58:25.484Z,41.62
2018-09-08T13:00:56.273Z,41.19
2018-09-08T13:03:26.881Z,39.99
2018-09-08T13:05:57.507Z,39.97
2018-09-08T13:08:27.818Z,40.54
2018-09-08T13:10:58.392Z,39.44
2018-09-08T13:13:29.530Z,38.62
2018-09-08T13:16:00.406Z,38.45
2018-09-08T13:18:35.918Z,39.36
2018-09-08T13:21:06.678Z,38.86
2018-09-08T13:23:37.142Z,38.53
2018-09-08T13:26:08.206Z,38.59
2018-09-08T13:28:38.428Z,38.69
2018-09-08T13:31:12.103Z,38.34
2018-09-08T13:33:42.674Z,39.33
2018-09-08T13:36:14.529Z,39.97
2018-09-08T13:38:45.297Z,39.34
2018-09-08T13:41:16.110Z,39.52
2018-09-08T13:43:47.255Z,39.98
2018-09-08T13:46:17.460Z,39.48
2018-09-08T13:48:48.248Z,39.18
2018-09-08T13:51:18.784Z,39.56
2018-09-08T13:53:49.268Z,39.45
2018-09-08T13:56:20.105Z,39.79
2018-09-08T13:58:50.920Z,39.94
2018-09-08T14:01:21.178Z,40.18
2018-09-08T14:03:51.892Z,40.65
2018-09-08T14:06:22.116Z,41.14
2018-09-08T14:08:52.932Z,40.97
2018-09-08T14:11:26.825Z,39.23
2018-09-08T14:13:57.734Z,40.05
2018-09-08T14:16:28.268Z,40.86
2018-09-08T14:18:58.523Z,40.50
2018-09-08T14:21:29.221Z,40.25
2018-09-08T14:23:59.708Z,41.45
2018-09-08T14:26:30.071Z,41.36
2018-09-08T14:29:01.508Z,42.30
2018-09-08T14:31:32.200Z,42.10
2018-09-08T14:34:03.032Z,41.73
2018-09-08T14:36:33.550Z,42.51
2018-09-08T14:39:05.747Z,42.41
2018-09-08T14:41:36.364Z,42.38
2018-09-08T14:44:07.119Z,41.57
2018-09-08T14:46:37.620Z,41.66
2018-09-08T14:49:08.252Z,42.29
2018-09-08T14:51:39.225Z,42.52
2018-09-08T14:54:10.248Z,42.55
2018-09-08T14:56:41.003Z,42.81
2018-09-08T14:59:11.903Z,43.15
2018-09-08T15:01:42.124Z,43.51
2018-09-08T15:04:12.997Z,43.08
2018-09-08T15:06:43.540Z,42.55
2018-09-08T15:09:14.048Z,42.54
2018-09-08T15:11:46.430Z,43.12
2018-09-08T15:14:16.973Z,42.53
2018-09-08T15:16:48.305Z,43.08
2018-09-08T15:19:19.542Z,42.48
2018-09-08T15:21:50.217Z,43.01
2018-09-08T15:24:20.890Z,41.85
2018-09-08T15:26:51.800Z,41.73
2018-09-08T15:29:22.349Z,41.96
2018-09-08T15:31:52.577Z,42.28
2018-09-08T15:34:23.053Z,42.03
2018-09-08T15:36:53.711Z,42.49
2018-09-08T15:39:24.219Z,42.12
2018-09-08T15:41:54.832Z,41.71
2018-09-08T15:44:25.357Z,42.52
2018-09-08T15:46:56.770Z,42.07
2018-09-08T15:49:27.372Z,42.14
2018-09-08T15:51:57.929Z,42.36
2018-09-08T15:54:28.532Z,42.23
2018-09-08T15:56:59.174Z,43.07
2018-09-08T15:59:29.725Z,42.57
2018-09-08T16:02:01.016Z,41.61
2018-09-08T16:04:31.654Z,41.48
2018-09-08T16:07:02.341Z,41.86
2018-09-08T16:09:32.596Z,41.41
2018-09-08T16:12:02.804Z,41.90
2018-09-08T16:14:33.087Z,41.94
2018-09-08T16:17:03.587Z,42.19
2018-09-08T16:19:34.092Z,42.23
2018-09-08T16:22:04.332Z,42.13
2018-09-08T16:24:34.888Z,42.84
2018-09-08T16:27:05.685Z,42.83
2018-09-08T16:29:36.346Z,43.08
2018-09-08T16:32:07.021Z,42.37
2018-09-08T16:34:37.296Z,43.41
2018-09-08T16:37:08.017Z,43.21
2018-09-08T16:39:38.716Z,42.72
2018-09-08T16:42:09.297Z,42.86
2018-09-08T16:44:39.760Z,42.51
2018-09-08T16:47:10.188Z,42.65
2018-09-08T16:49:40.743Z,42.73
2018-09-08T16:52:13.314Z,42.83
2018-09-08T16:54:44.105Z,43.30
2018-09-08T16:57:14.682Z,42.44
2018-09-08T16:59:47.053Z,43.39
2018-09-08T17:02:18.664Z,42.70
2018-09-08T17:04:49.546Z,43.09
2018-09-08T17:07:20.047Z,43.74
2018-09-08T17:09:50.819Z,43.77
2018-09-08T17:12:21.432Z,43.86
2018-09-08T17:14:52.013Z,43.49
2018-09-08T17:17:22.680Z,43.50
2018-09-08T17:19:53.204Z,43.59
2018-09-08T17:22:25.000Z,44.58
2018-09-08T17:24:55.605Z,44.47
2018-09-08T17:27:26.074Z,44.59
2018-09-08T17:29:56.568Z,45.22
2018-09-08T17:32:27.961Z,45.28
2018-09-08T17:34:58.621Z,46.10
2018-09-08T17:37:29.168Z,46.34
2018-09-08T17:40:11.957Z,46.43
2018-09-08T17:42:42.499Z,47.14
2018-09-08T17:45:15.317Z,47.96
2018-09-08T17:47:46.896Z,48.57
2018-09-08T17:50:17.985Z,48.90
2018-09-08T17:52:48.831Z,48.21
2018-09-08T17:55:20.527Z,50.25
2018-09-08T17:57:51.286Z,50.10
2018-09-08T18:00:23.638Z,49.76
2018-09-08T18:02:54.749Z,48.95
2018-09-08T18:05:25.691Z,49.20
2018-09-08T18:07:56.056Z,51.82
2018-09-08T18:10:27.268Z,51.90
2018-09-08T18:12:57.488Z,53.38
2018-09-08T18:15:27.954Z,53.78
2018-09-08T18:17:59.469Z,54.57
2018-09-08T18:20:34.435Z,54.79
2018-09-08T18:23:05.429Z,55.29
2018-09-08T18:25:36.491Z,55.78
2018-09-08T18:28:15.289Z,55.33
2018-09-08T18:30:46.366Z,55.48
2018-09-08T18:33:16.913Z,53.92
2018-09-08T18:35:48.453Z,52.10
2018-09-08T18:38:19.620Z,52.41
2018-09-08T18:40:50.516Z,53.01
2018-09-08T18:43:21.594Z,53.31
2018-09-08T18:45:52.361Z,54.37
2018-09-08T18:48:22.961Z,55.38
2018-09-08T18:50:53.956Z,55.35
2018-09-08T18:53:25.353Z,55.93
2018-09-08T18:55:55.924Z,56.57
2018-09-08T18:58:26.448Z,57.06
2018-09-08T19:00:56.957Z,57.16
2018-09-08T19:03:27.386Z,57.29
2018-09-08T19:05:57.957Z,57.92
2018-09-08T19:08:33.491Z,58.16
2018-09-08T19:11:03.720Z,57.60
2018-09-08T19:13:34.477Z,57.61
2018-09-08T19:16:05.015Z,57.47
2018-09-08T19:18:35.222Z,57.69
2018-09-08T19:21:05.830Z,58.61
2018-09-08T19:23:36.248Z,58.64
2018-09-08T19:26:06.843Z,58.90
2018-09-08T19:28:38.118Z,59.55
2018-09-08T19:31:11.305Z,58.68
2018-09-08T19:33:41.882Z,58.85
2018-09-08T19:36:12.996Z,58.97
2018-09-08T19:38:43.220Z,59.08
2018-09-08T19:41:13.757Z,59.22
2018-09-08T19:43:44.466Z,59.45
2018-09-08T19:46:20.477Z,59.65
2018-09-08T19:48:51.115Z,59.80
2018-09-08T19:51:22.553Z,59.57
2018-09-08T19:53:58.312Z,59.69
2018-09-08T19:56:34.276Z,59.67
2018-09-08T19:59:05.219Z,59.94
2018-09-08T20:01:35.969Z,59.76
2018-09-08T20:04:09.468Z,60.07
2018-09-08T20:06:39.761Z,59.92
2018-09-08T20:09:10.019Z,59.97
2018-09-08T20:11:40.832Z,59.10
2018-09-08T20:14:11.556Z,60.20
2018-09-08T20:16:42.292Z,60.03
2018-09-08T20:19:13.294Z,59.54
2018-09-08T20:21:44.565Z,59.67
2018-09-08T20:24:16.590Z,60.08
2018-09-08T20:26:47.465Z,59.83
2018-09-08T20:29:17.766Z,60.05
2018-09-08T20:31:49.203Z,59.97
2018-09-08T20:34:19.961Z,60.82
2018-09-08T20:36:50.580Z,61.46
2018-09-08T20:39:21.362Z,61.65
2018-09-08T20:41:52.287Z,62.47
2018-09-08T20:44:23.859Z,62.63
2018-09-08T20:46:54.263Z,62.21
2018-09-08T20:49:25.261Z,62.41
2018-09-08T20:51:56.439Z,62.91
2018-09-08T20:54:27.033Z,62.35
2018-09-08T20:56:57.560Z,62.39
2018-09-08T20:59:28.186Z,62.69
2018-09-08T21:01:58.426Z,62.93
2018-09-08T21:04:28.941Z,62.70
2018-09-08T21:06:59.857Z,63.19
2018-09-08T21:09:30.774Z,63.01
2018-09-08T21:12:01.397Z,63.22
2018-09-08T21:14:32.193Z,63.25
2018-09-08T21:17:02.739Z,62.61
2018-09-08T21:19:33.229Z,62.79
2018-09-08T21:22:04.059Z,63.03
2018-09-08T21:24:36.933Z,62.60
2018-09-08T21:27:08.477Z,62.32
2018-09-08T21:29:38.714Z,62.66
2018-09-08T21:32:09.280Z,63.28
2018-09-08T21:34:39.786Z,63.82
2018-09-08T21:37:10.266Z,63.83
2018-09-08T21:39:40.845Z,64.07
2018-09-08T21:42:11.640Z,63.87
2018-09-08T21:44:43.010Z,63.39
2018-09-08T21:47:13.524Z,62.83
2018-09-08T21:49:44.343Z,63.48
2018-09-08T21:52:15.081Z,63.99
2018-09-08T21:54:46.696Z,64.11
2018-09-08T21:57:17.283Z,64.54
2018-09-08T21:59:48.115Z,64.91
2018-09-08T22:02:18.650Z,65.75
2018-09-08T22:04:48.972Z,66.15
2018-09-08T22:07:19.514Z,66.75
2018-09-08T22:09:50.052Z,66.36
2018-09-08T22:12:21.112Z,66.84
2018-09-08T22:14:51.715Z,67.29
2018-09-08T22:17:22.228Z,67.05
2018-09-08T22:19:52.441Z,66.66
2018-09-08T22:22:23.739Z,66.32
2018-09-08T22:24:54.339Z,65.39
2018-09-08T22:27:24.896Z,65.89
2018-09-08T22:29:55.488Z,66.09
2018-09-08T22:32:25.899Z,66.65
2018-09-08T22:34:59.839Z,67.29
2018-09-08T22:37:30.380Z,68.37
2018-09-08T22:40:02.675Z,69.22
2018-09-08T22:42:42.150Z,70.00
2018-09-08T22:45:12.621Z,70.04
2018-09-08T22:47:43.104Z,70.16
2018-09-08T22:50:15.450Z,70.44
2018-09-08T22:52:45.956Z,70.67
2018-09-08T22:55:16.435Z,71.18
2018-09-08T22:57:46.913Z,71.49
2018-09-08T23:00:17.940Z,71.82
2018-09-08T23:02:49.469Z,71.22
2018-09-08T23:05:20.297Z,70.77
2018-09-08T23:07:51.185Z,70.62
2018-09-08T23:10:21.731Z,70.49
2018-09-08T23:12:52.652Z,69.41
2018-09-08T23:15:23.172Z,69.58
2018-09-08T23:17:53.621Z,69.30
2018-09-08T23:20:24.380Z,68.63
2018-09-08T23:22:55.273Z,68.93
2018-09-08T23:25:25.491Z,69.13
2018-09-08T23:27:55.749Z,68.82
2018-09-08T23:30:26.004Z,69.06
2018-09-08T23:32:56.766Z,68.76
2018-09-08T23:35:27.652Z,68.62
2018-09-08T23:37:58.165Z,68.47
2018-09-08T23:40:28.696Z,68.32
2018-09-08T23:42:59.190Z,68.17
2018-09-08T23:45:29.702Z,68.50
2018-09-08T23:47:59.977Z,67.99
2018-09-08T23:50:31.029Z,68.26
2018-09-08T23:53:02.886Z,67.99
2018-09-08T23:55:33.109Z,67.71
2018-09-08T23:58:03.601Z,67.72
